Time,TemperatureF,DewpointF,PressureIn,WindDirection,WindDirectionDegrees,WindSpeedMPH,WindSpeedGustMPH,Humidity,HourlyPrecipIn,Conditions,Clouds,dailyrainin,SolarRadiationWatts/m^2,SoftwareType,DateUTC
2015-01-30 00:02:00,40.0,32.0,-100.00,South,176,1.0,4.0,73,0.00,,,0.00,0.000000,,2015-01-30 08:02:00,
2015-01-30 00:43:00,36.0,30.0,-100.00,SW,219,1.0,4.0,80,0.00,,,0.00,0.000000,,2015-01-30 08:43:00,
2015-01-30 00:52:00,36.0,30.0,-100.00,SW,219,1.0,4.0,80,0.00,,,0.00,0.000000,,2015-01-30 08:52:00,
2015-01-30 01:03:00,36.0,30.0,-100.00,SW,219,1.0,4.0,80,0.00,,,0.00,0.000000,,2015-01-30 09:03:00,
2015-01-30 01:43:00,33.0,29.0,-100.00,South,169,2.0,4.0,84,0.00,,,0.00,0.000000,,2015-01-30 09:43:00,
2015-01-30 01:53:00,33.0,29.0,-100.00,South,169,2.0,4.0,84,0.00,,,0.00,0.000000,,2015-01-30 09:53:00,
2015-01-30 02:03:00,33.0,29.0,-100.00,South,169,2.0,4.0,84,0.00,,,0.00,0.000000,,2015-01-30 10:03:00,
2015-01-30 02:44:00,33.0,29.0,-100.00,North,-999,0.0,4.0,84,0.00,,,0.00,0.000000,,2015-01-30 10:44:00,
2015-01-30 02:54:00,33.0,29.0,-100.00,North,-999,0.0,4.0,84,0.00,,,0.00,0.000000,,2015-01-30 10:54:00,
2015-01-30 03:03:00,33.0,29.0,-100.00,North,-999,0.0,4.0,84,0.00,,,0.00,0.000000,,2015-01-30 11:03:00,
2015-01-30 03:43:00,32.0,29.0,-100.00,North,-999,0.0,4.0,88,0.00,,,0.00,0.000000,,2015-01-30 11:43:00,
2015-01-30 03:53:00,32.0,29.0,-100.00,North,-999,0.0,4.0,88,0.00,,,0.00,0.000000,,2015-01-30 11:53:00,
2015-01-30 04:02:00,32.0,29.0,-100.00,North,-999,0.0,4.0,88,0.00,,,0.00,0.000000,,2015-01-30 12:02:00,
2015-01-30 04:43:00,32.0,29.0,-100.00,North,-999,0.0,0.0,88,0.00,,,0.00,0.000000,,2015-01-30 12:43:00,
2015-01-30 04:52:00,32.0,29.0,-100.00,North,-999,0.0,0.0,88,0.00,,,0.00,0.000000,,2015-01-30 12:52:00,
2015-01-30 05:03:00,32.0,29.0,-100.00,North,-999,0.0,0.0,88,0.00,,,0.00,0.000000,,2015-01-30 13:03:00,
2015-01-30 05:43:00,29.0,27.0,-100.00,North,-999,0.0,0.0,93,0.00,,,0.00,0.000000,,2015-01-30 13:43:00,
2015-01-30 05:52:00,29.0,27.0,-100.00,North,-999,0.0,0.0,93,0.00,,,0.00,0.000000,,2015-01-30 13:52:00,
2015-01-30 06:02:00,29.0,27.0,-100.00,North,-999,0.0,0.0,93,0.00,,,0.00,0.000000,,2015-01-30 14:02:00,
2015-01-30 06:43:00,28.0,27.0,-100.00,North,-999,0.0,4.0,94,0.00,,,-99.99,0.000000,,2015-01-30 14:43:00,
2015-01-30 06:52:00,28.0,27.0,-100.00,North,-999,0.0,4.0,94,0.00,,,-99.99,0.000000,,2015-01-30 14:52:00,
2015-01-30 07:02:00,28.0,27.0,-100.00,North,-999,0.0,4.0,94,0.00,,,-99.99,0.000000,,2015-01-30 15:02:00,
2015-01-30 07:43:00,29.0,27.0,-100.00,North,-999,0.0,4.0,94,0.00,,,0.00,0.000000,,2015-01-30 15:43:00,
2015-01-30 07:53:00,29.0,27.0,-100.00,North,-999,0.0,4.0,94,0.00,,,0.00,0.000000,,2015-01-30 15:53:00,
2015-01-30 08:04:00,29.0,27.0,-100.00,North,-999,0.0,4.0,94,0.00,,,0.00,0.000000,,2015-01-30 16:04:00,
2015-01-30 08:44:00,35.0,32.0,-100.00,SSE,152,1.0,4.0,87,0.00,,,0.00,34.000000,,2015-01-30 16:44:00,
2015-01-30 08:54:00,35.0,32.0,-100.00,SSE,152,1.0,4.0,87,0.00,,,0.00,34.000000,,2015-01-30 16:54:00,
2015-01-30 09:03:00,35.0,32.0,-100.00,SSE,152,1.0,4.0,87,0.00,,,0.00,34.000000,,2015-01-30 17:03:00,